Time;durP1;ratioP1;P1;durP2;ratioP2;P2;SDS_P1;SDS_P2;PMS_P1;PMS_P2;Temp;Humidity;BMP_temperature;BMP_pressure;BME280_temperature;BME280_humidity;BME280_pressure;Samples;Min_cycle;Max_cycle;Signal;HPM_P1;HPM_P2
2023/09/21 00:00:16;;;;;;;;;;;;;;;-144.99;98.23;52333.94;5012678;28;19958;-67
2023/09/21 00:02:49;;;;;;;;;;;;;;;-144.99;97.99;52360.44;5013327;28;20342;-65
2023/09/21 00:05:16;;;;;;;;;;;;;;;-144.99;98.07;52350.25;5018303;28;19973;-64
2023/09/21 00:07:43;;;;;;;;;;;;;;;-144.99;97.77;52362.50;5018990;28;19947;-66
2023/09/21 00:10:12;;;;;;;;;;;;;;;-144.99;98.09;52333.94;5016251;28;20492;-65
2023/09/21 00:12:40;;;;;;;;;;;;;;;-144.99;98.29;52354.34;5015254;28;20404;-70
2023/09/21 00:15:07;;;;;;;;;;;;;;;-144.99;98.41;52338.03;5015009;28;19959;-68
2023/09/21 00:17:33;;;;;;;;;;;;;;;-144.99;98.51;52354.34;5013901;28;20448;-65
2023/09/21 00:20:00;;;;;;;;;;;;;;;-144.99;98.46;52321.72;5011317;28;20531;-67
2023/09/21 00:22:32;;;;;;;;;;;;;;;-144.99;98.50;52358.41;5011172;28;20393;-69
2023/09/21 00:24:59;;;;;;;;;;;;;;;-144.99;98.79;52366.56;5011330;28;19947;-69
2023/09/21 00:27:28;;;;;;;;;;;;;;;-144.99;98.52;52342.09;5012529;28;20375;-68
2023/09/21 00:29:55;;;;;;;;;;;;;;;-144.99;98.67;52360.44;5009627;28;19963;-66
2023/09/21 00:32:21;;;;;;;;;;;;;;;-144.99;99.00;52358.41;5013135;28;19964;-67
2023/09/21 00:34:50;;;;;;;;;;;;;;;-144.99;98.80;52366.56;5016329;28;19938;-67
2023/09/21 00:37:17;;;;;;;;;;;;;;;-144.99;98.77;52346.19;5013790;28;19942;-66
2023/09/21 00:39:44;;;;;;;;;;;;;;;-144.99;99.05;52352.28;5018600;28;20372;-66
2023/09/21 00:42:10;;;;;;;;;;;;;;;-144.99;99.03;52350.25;5019576;28;19946;-65
2023/09/21 00:44:38;;;;;;;;;;;;;;;-144.99;99.42;52321.72;5015093;28;19975;-64
2023/09/21 00:47:04;;;;;;;;;;;;;;;-144.99;99.32;52350.25;5019156;28;19988;-65
2023/09/21 00:49:31;;;;;;;;;;;;;;;-144.99;99.16;52382.88;5026177;28;19974;-67
2023/09/21 00:51:58;;;;;;;;;;;;;;;-144.99;99.28;52368.59;5019487;28;19996;-64
2023/09/21 00:54:25;;;;;;;;;;;;;;;-144.99;99.13;52354.34;5016841;28;19937;-62
2023/09/21 00:56:53;;;;;;;;;;;;;;;-144.99;99.60;52370.63;5011402;28;19947;-63
2023/09/21 00:59:20;;;;;;;;;;;;;;;-144.99;99.65;52346.19;5009469;28;19962;-64
2023/09/21 01:01:48;;;;;;;;;;;;;;;-144.99;99.77;52366.56;5011993;28;20143;-63
2023/09/21 01:04:15;;;;;;;;;;;;;;;-144.99;99.54;52395.09;5020088;28;19945;-63
2023/09/21 01:06:45;;;;;;;;;;;;;;;-144.99;99.53;52374.72;5021509;28;20006;-63
2023/09/21 01:09:13;;;;;;;;;;;;;;;-144.99;99.81;52342.09;5016026;28;20431;-68
2023/09/21 01:11:40;;;;;;;;;;;;;;;-144.99;99.71;52354.34;5018498;28;20005;-68
2023/09/21 01:14:06;;;;;;;;;;;;;;;-144.99;100.00;52354.34;5008639;28;19969;-66
2023/09/21 01:16:33;;;;;;;;;;;;;;;-144.99;100.00;52313.56;5016772;28;20562;-63
2023/09/21 01:19:01;;;;;;;;;;;;;;;-144.99;100.00;52317.66;5013707;28;20005;-64
2023/09/21 01:21:35;;;;;;;;;;;;;;;-144.99;100.00;52378.78;5016093;28;19977;-63
2023/09/21 01:24:05;;;;;;;;;;;;;;;-144.99;100.00;52372.69;5011766;28;19957;-64
2023/09/21 01:26:32;;;;;;;;;;;;;;;-144.99;100.00;52342.09;5020587;28;20209;-62
2023/09/21 01:28:59;;;;;;;;;;;;;;;-144.99;100.00;52352.28;5020643;28;19958;-61
2023/09/21 01:31:26;;;;;;;;;;;;;;;-144.99;100.00;52356.38;5017552;28;19949;-60
2023/09/21 01:33:52;;;;;;;;;;;;;;;-144.99;100.00;52378.78;5016701;28;20057;-62
2023/09/21 01:36:19;;;;;;;;;;;;;;;-144.99;100.00;52395.09;5022227;28;19981;-61
2023/09/21 01:38:46;;;;;;;;;;;;;;;-144.99;100.00;52378.78;5015792;28;19944;-62
2023/09/21 01:41:14;;;;;;;;;;;;;;;-144.99;100.00;52346.19;5014571;28;19955;-61
2023/09/21 01:43:42;;;;;;;;;;;;;;;-144.99;100.00;52354.34;5013950;28;20254;-61
2023/09/21 01:46:09;;;;;;;;;;;;;;;-144.99;100.00;52327.84;5012216;28;19947;-62
2023/09/21 01:48:36;;;;;;;;;;;;;;;-144.99;100.00;52378.78;5013602;28;20408;-61
2023/09/21 01:51:05;;;;;;;;;;;;;;;-144.99;100.00;52386.94;5012772;28;20059;-62
2023/09/21 01:53:32;;;;;;;;;;;;;;;-144.99;100.00;52391.03;5014557;28;20502;-69
2023/09/21 01:55:58;;;;;;;;;;;;;;;-144.99;100.00;52407.31;5014450;28;19940;-68
2023/09/21 01:58:24;;;;;;;;;;;;;;;-144.99;100.00;52344.16;5010876;28;20024;-68
2023/09/21 02:00:52;;;;;;;;;;;;;;;-144.99;100.00;52374.72;5013640;28;19960;-68
2023/09/21 02:03:19;;;;;;;;;;;;;;;-144.99;100.00;52364.53;5012509;28;20004;-68
2023/09/21 02:05:47;;;;;;;;;;;;;;;-144.99;100.00;52354.34;5015211;28;19943;-68
2023/09/21 02:08:15;;;;;;;;;;;;;;;-144.99;100.00;52378.78;5010046;28;19974;-69
2023/09/21 02:10:43;;;;;;;;;;;;;;;-144.99;100.00;52378.78;5014278;28;19963;-69
2023/09/21 02:13:09;;;;;;;;;;;;;;;-144.99;100.00;52386.94;5013829;28;19959;-67
2023/09/21 02:15:37;;;;;;;;;;;;;;;-144.99;100.00;52374.72;5013076;28;19941;-66
2023/09/21 02:18:05;;;;;;;;;;;;;;;-144.99;100.00;52374.72;5013620;28;19942;-66
2023/09/21 02:20:34;;;;;;;;;;;;;;;-144.99;100.00;52327.84;5019061;28;20165;-67
2023/09/21 02:23:02;;;;;;;;;;;;;;;-144.99;100.00;52391.03;5017312;28;19963;-67
2023/09/21 02:25:30;;;;;;;;;;;;;;;-144.99;100.00;52360.44;5018112;28;19944;-69
2023/09/21 02:27:57;;;;;;;;;;;;;;;-144.99;100.00;52378.78;5020360;28;19945;-68
2023/09/21 02:30:24;;;;;;;;;;;;;;;-144.99;100.00;52378.78;5027840;28;20017;-64
2023/09/21 02:32:51;;;;;;;;;;;;;;;-144.99;100.00;52366.56;5017343;28;20095;-64
2023/09/21 02:35:23;;;;;;;;;;;;;;;-144.99;100.00;52366.56;5024588;28;20030;-64
2023/09/21 02:37:50;;;;;;;;;;;;;;;-144.99;100.00;52366.56;5016167;28;19945;-65
2023/09/21 02:40:19;;;;;;;;;;;;;;;-144.99;100.00;52391.03;5025957;28;20007;-65
2023/09/21 02:42:46;;;;;;;;;;;;;;;-144.99;100.00;52378.78;5017241;28;19939;-68
2023/09/21 02:45:13;;;;;;;;;;;;;;;-144.99;100.00;52362.50;5013963;28;20085;-68
2023/09/21 02:47:41;;;;;;;;;;;;;;;-144.99;100.00;52378.78;5013642;28;20357;-64
2023/09/21 02:50:15;;;;;;;;;;;;;;;-144.99;100.00;52342.09;5012734;28;19959;-64
2023/09/21 02:52:47;;;;;;;;;;;;;;;-144.99;100.00;52362.50;5012606;28;20034;-66
2023/09/21 02:55:16;;;;;;;;;;;;;;;-144.99;100.00;52419.56;5013949;28;20036;-67
2023/09/21 02:57:42;;;;;;;;;;;;;;;-144.99;100.00;52399.19;5013387;28;20270;-68
2023/09/21 03:00:21;;;;;;;;;;;;;;;-144.99;100.00;52372.69;5012560;28;20002;-68
2023/09/21 03:02:48;;;;;;;;;;;;;;;-144.99;100.00;52395.09;5011217;28;19946;-69
2023/09/21 03:05:16;;;;;;;;;;;;;;;-144.99;100.00;52378.78;5011324;28;19943;-69
2023/09/21 03:07:43;;;;;;;;;;;;;;;-144.99;100.00;52382.88;5024055;28;20310;-67
2023/09/21 03:10:11;;;;;;;;;;;;;;;-144.99;100.00;52395.09;5029579;28;20081;-67
2023/09/21 03:12:38;;;;;;;;;;;;;;;-144.99;100.00;52391.03;5022257;28;19945;-68
2023/09/21 03:15:07;;;;;;;;;;;;;;;-144.99;100.00;52403.25;5021347;28;19980;-68
2023/09/21 03:17:34;;;;;;;;;;;;;;;-144.99;100.00;52378.78;5017249;28;20388;-69
2023/09/21 03:20:28;;;;;;;;;;;;;;;-144.99;100.00;52362.50;5012984;28;19959;-66
2023/09/21 03:22:47;;;;;;;;;;;;;;;-144.99;100.00;52329.88;5011530;28;19943;-64
2023/09/21 03:25:16;;;;;;;;;;;;;;;-144.99;100.00;52374.72;5008385;28;20032;-64
2023/09/21 03:27:43;;;;;;;;;;;;;;;-144.99;100.00;52395.09;5010437;28;20032;-65
2023/09/21 03:30:12;;;;;;;;;;;;;;;-144.99;100.00;52391.03;5012588;28;20050;-64
2023/09/21 03:32:41;;;;;;;;;;;;;;;-144.99;100.00;52356.38;5010640;28;19945;-64
2023/09/21 03:35:11;;;;;;;;;;;;;;;-144.99;100.00;52378.78;5014028;28;20045;-64
2023/09/21 03:37:38;;;;;;;;;;;;;;;-144.99;100.00;52358.41;5019745;28;19943;-64
2023/09/21 03:40:06;;;;;;;;;;;;;;;-144.99;100.00;52364.53;5014455;28;20450;-64
2023/09/21 03:42:34;;;;;;;;;;;;;;;-144.99;100.00;52358.41;5009328;28;19985;-63
2023/09/21 03:45:00;;;;;;;;;;;;;;;-144.99;100.00;52395.09;5009147;28;19948;-63
2023/09/21 03:47:27;;;;;;;;;;;;;;;-144.99;100.00;52364.53;5010732;28;20024;-67
2023/09/21 03:49:53;;;;;;;;;;;;;;;-144.99;100.00;52427.72;5009821;28;19976;-67
2023/09/21 03:52:22;;;;;;;;;;;;;;;-144.99;100.00;52384.91;5011921;28;19964;-67
2023/09/21 03:54:48;;;;;;;;;;;;;;;-144.99;100.00;52360.44;5011686;28;19965;-67
2023/09/21 03:57:15;;;;;;;;;;;;;;;-144.99;100.00;52362.50;5011198;28;20385;-67
2023/09/21 03:59:46;;;;;;;;;;;;;;;-144.99;100.00;52366.56;5011674;28;19965;-67
2023/09/21 04:02:13;;;;;;;;;;;;;;;-144.99;100.00;52391.03;5011687;28;19958;-58
2023/09/21 04:04:39;;;;;;;;;;;;;;;-144.99;100.00;52346.19;5010898;28;19968;-63
2023/09/21 04:07:07;;;;;;;;;;;;;;;-144.99;100.00;52407.31;5011928;28;20012;-64
2023/09/21 04:09:34;;;;;;;;;;;;;;;-144.99;100.00;52370.63;5015329;28;20476;-63
2023/09/21 04:12:00;;;;;;;;;;;;;;;-144.99;100.00;52386.94;5012723;28;19939;-64
2023/09/21 04:14:27;;;;;;;;;;;;;;;-144.99;100.00;52374.72;5010584;28;20109;-64
2023/09/21 04:16:55;;;;;;;;;;;;;;;-144.99;100.00;52380.84;5012446;28;19971;-65
2023/09/21 04:19:22;;;;;;;;;;;;;;;-144.99;100.00;52395.09;5011374;28;20015;-64
2023/09/21 04:21:50;;;;;;;;;;;;;;;-144.99;100.00;52378.78;5012221;28;19947;-66
2023/09/21 04:24:17;;;;;;;;;;;;;;;-144.99;100.00;52384.91;5017738;28;19964;-66
2023/09/21 04:26:43;;;;;;;;;;;;;;;-144.99;100.00;52360.44;5019627;28;20628;-65
2023/09/21 04:29:11;;;;;;;;;;;;;;;-144.99;100.00;52376.75;5015820;28;19990;-69
2023/09/21 04:31:38;;;;;;;;;;;;;;;-144.99;100.00;52374.72;5018937;28;19947;-69
2023/09/21 04:34:06;;;;;;;;;;;;;;;-144.99;100.00;52393.06;5014962;28;19963;-68
2023/09/21 04:36:33;;;;;;;;;;;;;;;-144.99;100.00;52391.03;5024351;28;20052;-68
2023/09/21 04:39:00;;;;;;;;;;;;;;;-144.99;100.00;52378.78;5009952;28;19989;-69
2023/09/21 04:41:27;;;;;;;;;;;;;;;-144.99;100.00;52419.56;5020736;28;19953;-69
2023/09/21 04:43:54;;;;;;;;;;;;;;;-144.99;100.00;52378.78;5020809;28;20006;-70
2023/09/21 04:46:20;;;;;;;;;;;;;;;-144.99;100.00;52333.94;5021461;28;20035;-69
2023/09/21 04:48:47;;;;;;;;;;;;;;;-144.99;100.00;52378.78;5014582;28;20003;-68
2023/09/21 04:51:16;;;;;;;;;;;;;;;-144.99;100.00;52358.41;5022864;28;19941;-69
2023/09/21 04:53:42;;;;;;;;;;;;;;;-144.99;100.00;52368.59;5018954;28;19964;-68
2023/09/21 04:56:09;;;;;;;;;;;;;;;-144.99;100.00;52388.97;5017359;28;20199;-67
2023/09/21 04:58:35;;;;;;;;;;;;;;;-144.99;100.00;52382.88;5020097;28;20071;-68
2023/09/21 05:01:09;;;;;;;;;;;;;;;-144.99;100.00;52403.25;5025495;28;20476;-69
2023/09/21 05:03:35;;;;;;;;;;;;;;;-144.99;100.00;52368.59;5011037;28;20061;-76
2023/09/21 05:06:02;;;;;;;;;;;;;;;-144.99;100.00;52358.41;5017997;28;20456;-76
2023/09/21 05:08:35;;;;;;;;;;;;;;;-144.99;100.00;52386.94;5015562;28;19944;-76
2023/09/21 05:11:01;;;;;;;;;;;;;;;-144.99;100.00;52378.78;5022446;28;19942;-76
2023/09/21 05:13:28;;;;;;;;;;;;;;;-144.99;100.00;52358.41;5014878;28;19950;-73
2023/09/21 05:15:54;;;;;;;;;;;;;;;-144.99;100.00;52395.09;5013828;28;20382;-72
2023/09/21 05:18:21;;;;;;;;;;;;;;;-144.99;100.00;52378.78;4672628;28;10000225;-72
2023/09/21 05:20:48;;;;;;;;;;;;;;;-144.99;100.00;52382.88;5012551;28;20414;-72
2023/09/21 05:23:15;;;;;;;;;;;;;;;-144.99;100.00;52366.56;5014122;28;20423;-73
2023/09/21 05:25:43;;;;;;;;;;;;;;;-144.99;100.00;52342.09;5018507;28;19944;-72
2023/09/21 05:28:09;;;;;;;;;;;;;;;-144.99;100.00;52374.72;5016035;28;19951;-72
2023/09/21 05:30:36;;;;;;;;;;;;;;;-144.99;100.00;52358.41;5013682;28;19996;-71
2023/09/21 05:33:02;;;;;;;;;;;;;;;-144.99;100.00;52386.94;5016202;28;19990;-72
2023/09/21 05:35:29;;;;;;;;;;;;;;;-144.99;100.00;52397.13;5016628;28;19987;-71
2023/09/21 05:37:56;;;;;;;;;;;;;;;-144.99;100.00;52378.78;5011364;28;20363;-71
2023/09/21 05:40:22;;;;;;;;;;;;;;;-144.99;100.00;52407.31;5022344;28;19964;-72
2023/09/21 05:42:50;;;;;;;;;;;;;;;-144.99;100.00;52378.78;5011001;28;19961;-72
2023/09/21 05:45:17;;;;;;;;;;;;;;;-144.99;100.00;52342.09;5020784;28;20398;-72
2023/09/21 05:47:43;;;;;;;;;;;;;;;-144.99;100.00;52358.41;5013466;28;20365;-72
2023/09/21 05:50:13;;;;;;;;;;;;;;;-144.99;100.00;52382.88;5022177;28;20015;-71
2023/09/21 05:52:40;;;;;;;;;;;;;;;-144.99;100.00;52338.03;5012781;28;19942;-72
2023/09/21 05:55:09;;;;;;;;;;;;;;;-144.99;100.00;52350.25;5006325;28;19964;-72
2023/09/21 05:57:36;;;;;;;;;;;;;;;-144.99;100.00;52344.16;5014096;28;19943;-72
2023/09/21 06:00:07;;;;;;;;;;;;;;;-144.99;99.40;52323.75;5010307;28;19956;-72
2023/09/21 06:02:34;;;;;;;;;;;;;;;-144.99;99.04;52391.03;5016050;28;19946;-72
2023/09/21 06:05:01;;;;;;;;;;;;;;;-144.99;98.38;52327.84;5012435;28;19970;-72
2023/09/21 06:07:27;;;;;;;;;;;;;;;-144.99;98.17;52346.19;5019725;28;20433;-72
2023/09/21 06:09:54;;;;;;;;;;;;;;;-144.99;98.13;52342.09;5014177;28;20067;-72
2023/09/21 06:12:21;;;;;;;;;;;;;;;-144.99;97.43;52370.63;5014912;28;19951;-72
2023/09/21 06:14:50;;;;;;;;;;;;;;;-144.99;96.93;52342.09;5023848;28;20066;-72
2023/09/21 06:17:18;;;;;;;;;;;;;;;-144.99;96.31;52305.41;5021440;28;19958;-72
2023/09/21 06:19:44;;;;;;;;;;;;;;;-144.99;95.86;52333.94;5018139;28;19964;-73
2023/09/21 06:22:12;;;;;;;;;;;;;;;-144.99;95.16;52333.94;5026196;28;20390;-71
2023/09/21 06:24:39;;;;;;;;;;;;;;;-144.99;94.62;52346.19;5021387;28;19950;-72
2023/09/21 06:27:06;;;;;;;;;;;;;;;-144.99;93.86;52325.81;5010016;28;19950;-72
2023/09/21 06:29:32;;;;;;;;;;;;;;;-144.99;93.40;52338.03;5019838;28;20024;-72
2023/09/21 06:32:00;;;;;;;;;;;;;;;-144.99;93.35;52342.09;5013757;28;20450;-73
2023/09/21 06:34:28;;;;;;;;;;;;;;;-144.99;93.10;52346.19;5024177;28;20089;-73
2023/09/21 06:36:56;;;;;;;;;;;;;;;-144.99;93.41;52362.50;5013456;28;19976;-72
2023/09/21 06:39:23;;;;;;;;;;;;;;;-144.99;92.89;52350.25;5010817;28;20509;-72
2023/09/21 06:41:49;;;;;;;;;;;;;;;-144.99;92.61;52350.25;5013745;28;19951;-72
2023/09/21 06:44:18;;;;;;;;;;;;;;;-144.99;92.13;52329.88;5019858;28;19954;-71
2023/09/21 06:46:44;;;;;;;;;;;;;;;-144.99;91.11;52333.94;5019852;28;20439;-71
2023/09/21 06:49:11;;;;;;;;;;;;;;;-144.99;90.67;52338.03;5013390;28;19966;-71
2023/09/21 06:51:39;;;;;;;;;;;;;;;-144.99;89.76;52301.34;5019407;28;20488;-72
2023/09/21 06:54:05;;;;;;;;;;;;;;;-144.99;88.99;52321.72;5013309;28;19943;-72
2023/09/21 06:56:32;;;;;;;;;;;;;;;-144.99;87.77;52358.41;5015130;28;20430;-72
2023/09/21 06:58:59;;;;;;;;;;;;;;;-144.99;87.69;52333.94;5015275;28;20363;-72
2023/09/21 07:01:26;;;;;;;;;;;;;;;-144.99;86.83;52350.25;5018674;28;19946;-72
2023/09/21 07:03:53;;;;;;;;;;;;;;;-144.99;86.03;52309.50;5026293;28;19971;-72
2023/09/21 07:06:20;;;;;;;;;;;;;;;-144.99;85.98;52346.19;5022555;28;19949;-72
2023/09/21 07:08:47;;;;;;;;;;;;;;;-144.99;85.24;52293.19;5012791;28;20312;-72
2023/09/21 07:11:15;;;;;;;;;;;;;;;-144.99;84.58;52321.72;5011769;28;20015;-72
2023/09/21 07:13:42;;;;;;;;;;;;;;;-144.99;83.83;52289.13;5024883;28;20014;-72
2023/09/21 07:16:09;;;;;;;;;;;;;;;-144.99;82.22;52289.13;5023445;28;19969;-71
2023/09/21 07:18:36;;;;;;;;;;;;;;;-144.99;81.07;52331.91;5016455;28;19949;-72
2023/09/21 07:21:03;;;;;;;;;;;;;;;-144.99;80.30;52293.19;5014159;28;19944;-72
2023/09/21 07:23:30;;;;;;;;;;;;;;;-144.99;79.81;52293.19;5016860;28;19995;-72
2023/09/21 07:25:58;;;;;;;;;;;;;;;-144.99;79.55;52301.34;5013747;28;19943;-73
2023/09/21 07:28:25;;;;;;;;;;;;;;;-144.99;78.73;52325.81;5012451;28;20304;-72
2023/09/21 07:30:52;;;;;;;;;;;;;;;-144.99;78.67;52289.13;5019654;28;20468;-72
2023/09/21 07:33:20;;;;;;;;;;;;;;;-144.99;77.77;52287.06;5027497;28;19946;-72
2023/09/21 07:35:47;;;;;;;;;;;;;;;-144.99;78.01;52289.13;5020200;28;19974;-71
2023/09/21 07:38:13;;;;;;;;;;;;;;;-144.99;77.20;52272.81;5015160;28;20037;-71
2023/09/21 07:40:40;;;;;;;;;;;;;;;-144.99;76.92;52317.66;5018013;28;20453;-72
2023/09/21 07:43:08;;;;;;;;;;;;;;;-144.99;75.97;52276.88;5015452;28;20070;-71
2023/09/21 07:45:35;;;;;;;;;;;;;;;-144.99;76.08;52280.97;5007845;28;20455;-71
2023/09/21 07:48:01;;;;;;;;;;;;;;;-144.99;75.29;52291.16;5008516;28;20036;-72
2023/09/21 07:50:32;;;;;;;;;;;;;;;-144.99;75.41;52289.13;5020141;28;20065;-72
2023/09/21 07:52:59;;;;;;;;;;;;;;;-144.99;75.38;52287.06;5010359;28;19938;-72
2023/09/21 07:55:25;;;;;;;;;;;;;;;-144.99;75.71;52301.34;5018841;28;19960;-71
2023/09/21 07:57:52;;;;;;;;;;;;;;;-144.99;75.10;52285.03;5010702;28;19992;-72
2023/09/21 08:00:20;;;;;;;;;;;;;;;-144.99;74.37;52293.19;5022596;28;20016;-72
2023/09/21 08:02:47;;;;;;;;;;;;;;;-144.99;74.39;52252.44;5019640;28;19950;-72
2023/09/21 08:05:14;;;;;;;;;;;;;;;-144.99;74.08;52289.13;5025488;28;19965;-72
2023/09/21 08:07:40;;;;;;;;;;;;;;;-144.99;73.32;52244.28;5010667;28;19949;-71
2023/09/21 08:10:08;;;;;;;;;;;;;;;-144.99;73.11;52289.13;5022345;28;20018;-71
2023/09/21 08:12:36;;;;;;;;;;;;;;;-144.99;73.37;52240.19;5018096;28;20000;-71
2023/09/21 08:15:06;;;;;;;;;;;;;;;-144.99;72.35;52248.34;5018483;28;20340;-71
2023/09/21 08:17:36;;;;;;;;;;;;;;;-144.99;72.35;52272.81;5017477;28;19946;-71
2023/09/21 08:20:04;;;;;;;;;;;;;;;-144.99;72.40;52268.72;5018479;28;20331;-72
2023/09/21 08:22:30;;;;;;;;;;;;;;;-144.99;71.50;52248.34;5021857;28;20486;-72
2023/09/21 08:24:57;;;;;;;;;;;;;;;-144.99;71.97;52244.28;5023023;28;19980;-71
2023/09/21 08:27:23;;;;;;;;;;;;;;;-144.99;71.48;52240.19;5019746;28;19973;-72
2023/09/21 08:29:50;;;;;;;;;;;;;;;-144.99;71.88;52227.97;5010027;28;19974;-72
2023/09/21 08:32:16;;;;;;;;;;;;;;;-144.99;71.33;52203.50;5019604;28;19951;-72
2023/09/21 08:34:45;;;;;;;;;;;;;;;-144.99;70.72;52256.50;5016856;28;19949;-73
2023/09/21 08:37:11;;;;;;;;;;;;;;;-144.99;70.92;52240.19;5023595;28;20044;-72
2023/09/21 08:39:38;;;;;;;;;;;;;;;-144.99;70.81;52264.66;5008672;28;20440;-72
2023/09/21 08:42:04;;;;;;;;;;;;;;;-144.99;70.61;52227.97;5014980;28;20469;-73
2023/09/21 08:44:31;;;;;;;;;;;;;;;-144.99;70.15;52227.97;5013098;28;20023;-73
2023/09/21 08:46:58;;;;;;;;;;;;;;;-144.99;69.29;52223.88;5015029;28;19943;-72
2023/09/21 08:49:26;;;;;;;;;;;;;;;-144.99;68.91;52236.13;5019730;28;19964;-71
2023/09/21 08:51:56;;;;;;;;;;;;;;;-144.99;69.21;52252.44;5016503;28;20207;-71
2023/09/21 08:54:24;;;;;;;;;;;;;;;-144.99;69.32;52270.78;5025585;28;20568;-73
2023/09/21 08:56:55;;;;;;;;;;;;;;;-144.99;69.91;52268.72;5018546;28;19959;-73
2023/09/21 08:59:21;;;;;;;;;;;;;;;-144.99;70.48;52256.50;5015294;28;20056;-72
2023/09/21 09:01:48;;;;;;;;;;;;;;;-144.99;70.62;52256.50;5025057;28;19987;-72
2023/09/21 09:04:15;;;;;;;;;;;;;;;-144.99;70.71;52223.88;5017892;28;19941;-74
2023/09/21 09:06:41;;;;;;;;;;;;;;;-144.99;71.00;52301.34;5016367;28;19955;-72
2023/09/21 09:09:09;;;;;;;;;;;;;;;-144.99;70.92;52280.97;5013688;28;20008;-72
2023/09/21 09:11:37;;;;;;;;;;;;;;;-144.99;71.03;52223.88;5008071;28;19956;-72
2023/09/21 09:14:04;;;;;;;;;;;;;;;-144.99;70.97;52244.28;5016227;28;19997;-73
2023/09/21 09:16:33;;;;;;;;;;;;;;;-144.99;70.51;52289.13;5025180;28;19962;-72
2023/09/21 09:19:02;;;;;;;;;;;;;;;-144.99;70.72;52213.69;5008239;28;20033;-72
2023/09/21 09:21:29;;;;;;;;;;;;;;;-144.99;70.28;52256.50;5010259;28;19987;-71
2023/09/21 09:23:56;;;;;;;;;;;;;;;-144.99;70.83;52270.78;5013330;28;19948;-72
2023/09/21 09:26:24;;;;;;;;;;;;;;;-144.99;70.19;52215.75;5015324;28;20515;-71
2023/09/21 09:28:50;;;;;;;;;;;;;;;-144.99;69.52;52203.50;5010962;28;20493;-72
2023/09/21 09:31:18;;;;;;;;;;;;;;;-144.99;67.33;52193.31;5013134;28;19974;-71
2023/09/21 09:33:46;;;;;;;;;;;;;;;-144.99;67.23;52256.50;5025186;28;19941;-72
2023/09/21 09:36:13;;;;;;;;;;;;;;;-144.99;67.22;52240.19;5017872;28;20522;-72
2023/09/21 09:38:39;;;;;;;;;;;;;;;-144.99;67.17;52195.34;5007453;28;20413;-72
2023/09/21 09:41:06;;;;;;;;;;;;;;;-144.99;65.46;52207.59;5009630;28;19988;-72
2023/09/21 09:43:35;;;;;;;;;;;;;;;-144.99;65.48;52170.91;5014502;28;19942;-72
2023/09/21 09:46:04;;;;;;;;;;;;;;;-144.99;65.41;52146.44;5015955;28;20132;-72
2023/09/21 09:48:32;;;;;;;;;;;;;;;-144.99;63.96;52146.44;5020726;28;19942;-71
2023/09/21 09:51:03;;;;;;;;;;;;;;;-144.99;63.39;52148.47;5021652;28;19944;-71
2023/09/21 09:53:31;;;;;;;;;;;;;;;-144.99;63.24;52142.38;5016665;28;19948;-71
2023/09/21 09:56:00;;;;;;;;;;;;;;;-144.99;62.59;52113.84;5025311;28;19967;-72
2023/09/21 09:58:27;;;;;;;;;;;;;;;-144.99;62.52;52126.06;5026346;28;19949;-71
2023/09/21 10:00:55;;;;;;;;;;;;;;;-144.99;61.75;52095.50;5017654;28;20005;-72
2023/09/21 10:03:22;;;;;;;;;;;;;;;-144.99;61.34;52146.44;5011911;28;19982;-71
2023/09/21 10:05:50;;;;;;;;;;;;;;;-144.99;60.54;52113.84;5021228;28;19947;-71
2023/09/21 10:08:18;;;;;;;;;;;;;;;-144.99;59.83;52097.53;5017787;28;19981;-72
2023/09/21 10:10:47;;;;;;;;;;;;;;;-144.99;60.48;52126.06;5018266;28;20020;-71
2023/09/21 10:13:16;;;;;;;;;;;;;;;-144.99;60.59;52121.97;5023180;28;20031;-71
2023/09/21 10:15:43;;;;;;;;;;;;;;;-144.99;60.48;52085.31;5019290;28;19963;-71
2023/09/21 10:18:11;;;;;;;;;;;;;;;-144.99;60.49;52089.38;5015865;28;19984;-71
2023/09/21 10:20:38;;;;;;;;;;;;;;;-144.99;59.87;52093.44;5010088;28;20049;-71
2023/09/21 10:23:09;;;;;;;;;;;;;;;-144.99;60.51;52095.50;5019526;28;20542;-71
2023/09/21 10:25:37;;;;;;;;;;;;;;;-144.99;60.47;52097.53;5021963;28;19947;-71
2023/09/21 10:28:22;;;;;;;;;;;;;;;-144.99;60.03;52126.06;5015383;28;19968;-71
2023/09/21 10:30:48;;;;;;;;;;;;;;;-144.99;60.22;52050.66;5010671;28;19964;-72
2023/09/21 10:33:16;;;;;;;;;;;;;;;-144.99;60.12;52095.50;5013710;28;20140;-72
2023/09/21 10:35:44;;;;;;;;;;;;;;;-144.99;59.94;52077.16;5020080;28;20028;-72
2023/09/21 10:38:14;;;;;;;;;;;;;;;-144.99;59.47;51991.56;5024436;28;19941;-71
2023/09/21 10:40:41;;;;;;;;;;;;;;;-144.99;59.80;52069.00;5011107;28;19960;-72
2023/09/21 10:43:22;;;;;;;;;;;;;;;-144.99;59.49;52048.63;5021034;28;19976;-71
2023/09/21 10:45:55;;;;;;;;;;;;;;;-144.99;59.54;51999.69;5016027;28;19995;-71
2023/09/21 10:48:24;;;;;;;;;;;;;;;-144.99;59.33;51983.41;5018169;28;20606;-72
2023/09/21 10:50:51;;;;;;;;;;;;;;;-144.99;59.04;51967.09;5019293;28;19958;-71
2023/09/21 10:53:18;;;;;;;;;;;;;;;-144.99;58.59;52036.38;5018324;28;20632;-72
2023/09/21 10:55:45;;;;;;;;;;;;;;;-144.99;59.36;52142.38;5012236;28;19998;-71
2023/09/21 10:58:12;;;;;;;;;;;;;;;-144.99;60.74;52177.00;5021038;28;20087;-72
2023/09/21 11:00:39;;;;;;;;;;;;;;;-144.99;61.63;52203.50;5017672;28;20407;-71
2023/09/21 11:03:05;;;;;;;;;;;;;;;-144.99;62.76;52211.66;5021530;28;20041;-70
2023/09/21 11:05:33;;;;;;;;;;;;;;;-144.99;62.81;52191.28;5021537;28;19947;-70
2023/09/21 11:08:00;;;;;;;;;;;;;;;-144.99;63.07;52115.88;5025646;28;19981;-70
2023/09/21 11:10:27;;;;;;;;;;;;;;;-144.99;62.74;52158.66;5017338;28;20006;-71
2023/09/21 11:12:54;;;;;;;;;;;;;;;-144.99;62.41;52154.59;5011284;28;19948;-70
2023/09/21 11:15:21;;;;;;;;;;;;;;;-144.99;62.69;52166.81;5022401;28;20331;-70
2023/09/21 11:17:48;;;;;;;;;;;;;;;-144.99;62.12;52001.75;5015226;28;19954;-71
2023/09/21 11:20:17;;;;;;;;;;;;;;;-144.99;61.07;52007.84;5016493;28;20061;-71
2023/09/21 11:22:46;;;;;;;;;;;;;;;-144.99;59.80;51932.44;5014019;28;19993;-72
2023/09/21 11:25:14;;;;;;;;;;;;;;;-144.99;58.67;51979.31;5018181;28;19949;-70
2023/09/21 11:27:41;;;;;;;;;;;;;;;-144.99;58.70;51983.41;5011111;28;19957;-72
2023/09/21 11:30:10;;;;;;;;;;;;;;;-144.99;57.85;51983.41;5015513;28;19963;-71
2023/09/21 11:32:40;;;;;;;;;;;;;;;-144.99;58.61;51901.88;5010219;28;20044;-71
2023/09/21 11:35:08;;;;;;;;;;;;;;;-144.99;58.00;51930.41;5021408;28;20162;-71
2023/09/21 11:37:35;;;;;;;;;;;;;;;-144.99;58.06;51938.56;5019417;28;19961;-71
2023/09/21 11:40:10;;;;;;;;;;;;;;;-144.99;58.61;51926.34;5024136;28;19962;-71
2023/09/21 11:42:37;;;;;;;;;;;;;;;-144.99;58.07;51881.50;5023227;28;19947;-71
2023/09/21 11:45:06;;;;;;;;;;;;;;;-144.99;57.28;51930.41;5016893;28;19954;-71
2023/09/21 11:47:32;;;;;;;;;;;;;;;-144.99;57.05;51912.06;5015538;28;19993;-71
2023/09/21 11:50:03;;;;;;;;;;;;;;;-144.99;56.88;51901.88;5012995;28;19959;-71
2023/09/21 11:52:31;;;;;;;;;;;;;;;-144.99;57.06;51950.78;5016369;28;19972;-71
2023/09/21 11:54:57;;;;;;;;;;;;;;;-144.99;57.73;51987.47;5013473;28;19997;-71
2023/09/21 11:57:25;;;;;;;;;;;;;;;-144.99;58.00;52003.78;5017265;28;20099;-71
2023/09/21 11:59:56;;;;;;;;;;;;;;;-144.99;58.17;51975.25;5020763;28;19959;-71
2023/09/21 12:02:22;;;;;;;;;;;;;;;-144.99;58.42;51956.91;5017095;28;19948;-70
2023/09/21 12:04:49;;;;;;;;;;;;;;;-144.99;58.73;51960.97;5019413;28;20000;-71
2023/09/21 12:07:15;;;;;;;;;;;;;;;-144.99;58.45;52040.47;5020172;28;20429;-71
2023/09/21 12:09:42;;;;;;;;;;;;;;;-144.99;57.56;51989.50;5021282;28;20071;-71
2023/09/21 12:12:09;;;;;;;;;;;;;;;-144.99;56.90;51903.91;5013338;28;20271;-70
2023/09/21 12:14:40;;;;;;;;;;;;;;;-144.99;56.72;51918.19;5014488;28;19948;-70
2023/09/21 12:17:10;;;;;;;;;;;;;;;-144.99;57.93;52073.06;5013049;28;19973;-71
2023/09/21 12:19:37;;;;;;;;;;;;;;;-144.99;58.47;52016.00;5012664;28;19962;-70
2023/09/21 12:22:04;;;;;;;;;;;;;;;-144.99;59.33;52073.06;5021144;28;19942;-73
2023/09/21 12:24:31;;;;;;;;;;;;;;;-144.99;59.60;52138.28;5025588;28;19953;-73